sensor_id;sensor_type;location;lat;lon;timestamp;temperature;humidity
70550;DHT22;58101;48.658;2.328;2023-02-28T00:01:20;2.60;84.70
70550;DHT22;58101;48.658;2.328;2023-02-28T00:03:46;2.60;86.20
70550;DHT22;58101;48.658;2.328;2023-02-28T00:06:12;2.60;86.70
70550;DHT22;58101;48.658;2.328;2023-02-28T00:08:38;2.60;88.20
70550;DHT22;58101;48.658;2.328;2023-02-28T00:11:07;2.60;88.30
70550;DHT22;58101;48.658;2.328;2023-02-28T00:13:38;2.50;88.20
70550;DHT22;58101;48.658;2.328;2023-02-28T00:16:07;2.50;88.80
70550;DHT22;58101;48.658;2.328;2023-02-28T00:18:34;2.50;89.80
70550;DHT22;58101;48.658;2.328;2023-02-28T00:21:00;2.50;90.00
70550;DHT22;58101;48.658;2.328;2023-02-28T00:23:26;2.50;90.30
70550;DHT22;58101;48.658;2.328;2023-02-28T00:25:52;2.50;90.90
70550;DHT22;58101;48.658;2.328;2023-02-28T00:28:18;2.50;91.00
70550;DHT22;58101;48.658;2.328;2023-02-28T00:30:44;2.40;91.30
70550;DHT22;58101;48.658;2.328;2023-02-28T00:33:10;2.50;91.10
70550;DHT22;58101;48.658;2.328;2023-02-28T00:35:36;2.50;91.30
70550;DHT22;58101;48.658;2.328;2023-02-28T00:38:01;2.40;91.80
70550;DHT22;58101;48.658;2.328;2023-02-28T00:40:28;2.40;92.00
70550;DHT22;58101;48.658;2.328;2023-02-28T00:42:53;2.40;92.30
70550;DHT22;58101;48.658;2.328;2023-02-28T00:45:19;2.40;92.10
70550;DHT22;58101;48.658;2.328;2023-02-28T00:47:45;2.30;92.40
70550;DHT22;58101;48.658;2.328;2023-02-28T00:50:12;2.30;92.50
70550;DHT22;58101;48.658;2.328;2023-02-28T00:52:38;2.30;92.50
70550;DHT22;58101;48.658;2.328;2023-02-28T00:55:04;2.30;92.60
70550;DHT22;58101;48.658;2.328;2023-02-28T00:57:30;2.30;92.60
70550;DHT22;58101;48.658;2.328;2023-02-28T00:59:55;2.30;92.60
70550;DHT22;58101;48.658;2.328;2023-02-28T01:02:22;2.30;92.80
70550;DHT22;58101;48.658;2.328;2023-02-28T01:04:48;2.30;92.60
70550;DHT22;58101;48.658;2.328;2023-02-28T01:07:14;2.20;92.50
70550;DHT22;58101;48.658;2.328;2023-02-28T01:09:40;2.30;92.60
70550;DHT22;58101;48.658;2.328;2023-02-28T01:12:07;2.20;92.10
70550;DHT22;58101;48.658;2.328;2023-02-28T01:14:32;2.20;92.10
70550;DHT22;58101;48.658;2.328;2023-02-28T01:16:58;2.30;92.80
70550;DHT22;58101;48.658;2.328;2023-02-28T01:19:24;2.20;92.70
70550;DHT22;58101;48.658;2.328;2023-02-28T01:21:49;2.10;92.70
70550;DHT22;58101;48.658;2.328;2023-02-28T01:24:15;2.20;93.00
70550;DHT22;58101;48.658;2.328;2023-02-28T01:26:41;2.20;92.10
70550;DHT22;58101;48.658;2.328;2023-02-28T01:29:06;2.10;92.30
70550;DHT22;58101;48.658;2.328;2023-02-28T01:31:32;2.10;92.50
70550;DHT22;58101;48.658;2.328;2023-02-28T01:33:57;2.10;92.50
70550;DHT22;58101;48.658;2.328;2023-02-28T01:36:24;2.10;92.50
70550;DHT22;58101;48.658;2.328;2023-02-28T01:38:50;2.00;92.60
70550;DHT22;58101;48.658;2.328;2023-02-28T01:46:13;2.00;92.80
70550;DHT22;58101;48.658;2.328;2023-02-28T01:48:47;2.00;92.60
70550;DHT22;58101;48.658;2.328;2023-02-28T01:51:18;2.00;92.40
70550;DHT22;58101;48.658;2.328;2023-02-28T01:53:52;1.90;92.50
70550;DHT22;58101;48.658;2.328;2023-02-28T01:56:29;1.90;92.10
70550;DHT22;58101;48.658;2.328;2023-02-28T01:58:56;1.90;92.20
70550;DHT22;58101;48.658;2.328;2023-02-28T02:01:23;1.90;92.00
70550;DHT22;58101;48.658;2.328;2023-02-28T02:03:53;1.90;91.90
70550;DHT22;58101;48.658;2.328;2023-02-28T02:06:40;1.90;92.00
70550;DHT22;58101;48.658;2.328;2023-02-28T02:09:07;1.80;92.20
70550;DHT22;58101;48.658;2.328;2023-02-28T02:11:34;1.80;91.60
70550;DHT22;58101;48.658;2.328;2023-02-28T02:19:15;1.80;91.70
70550;DHT22;58101;48.658;2.328;2023-02-28T02:24:47;1.80;91.50
70550;DHT22;58101;48.658;2.328;2023-02-28T02:36:06;1.70;92.10
70550;DHT22;58101;48.658;2.328;2023-02-28T02:38:52;1.70;92.20
70550;DHT22;58101;48.658;2.328;2023-02-28T02:41:36;1.70;92.50
70550;DHT22;58101;48.658;2.328;2023-02-28T02:44:15;1.60;92.40
70550;DHT22;58101;48.658;2.328;2023-02-28T02:46:44;1.60;92.50
70550;DHT22;58101;48.658;2.328;2023-02-28T02:49:15;1.60;92.50
70550;DHT22;58101;48.658;2.328;2023-02-28T02:51:42;1.60;92.80
70550;DHT22;58101;48.658;2.328;2023-02-28T02:54:28;1.60;92.70
70550;DHT22;58101;48.658;2.328;2023-02-28T02:56:59;1.50;92.60
70550;DHT22;58101;48.658;2.328;2023-02-28T02:59:28;1.50;93.30
70550;DHT22;58101;48.658;2.328;2023-02-28T03:02:01;1.50;93.50
70550;DHT22;58101;48.658;2.328;2023-02-28T03:04:32;1.50;93.30
70550;DHT22;58101;48.658;2.328;2023-02-28T03:06:58;1.50;93.70
70550;DHT22;58101;48.658;2.328;2023-02-28T03:09:25;1.40;93.60
70550;DHT22;58101;48.658;2.328;2023-02-28T03:11:52;1.40;94.40
70550;DHT22;58101;48.658;2.328;2023-02-28T03:25:23;1.30;95.10
70550;DHT22;58101;48.658;2.328;2023-02-28T03:33:14;1.30;95.20
70550;DHT22;58101;48.658;2.328;2023-02-28T03:35:58;1.30;95.30
70550;DHT22;58101;48.658;2.328;2023-02-28T03:41:09;1.20;94.80
70550;DHT22;58101;48.658;2.328;2023-02-28T03:43:41;1.20;94.50
70550;DHT22;58101;48.658;2.328;2023-02-28T03:46:10;1.20;94.70
70550;DHT22;58101;48.658;2.328;2023-02-28T03:49:09;1.20;94.70
70550;DHT22;58101;48.658;2.328;2023-02-28T03:51:38;1.20;94.90
70550;DHT22;58101;48.658;2.328;2023-02-28T03:54:11;1.20;94.50
70550;DHT22;58101;48.658;2.328;2023-02-28T03:56:41;1.20;95.10
70550;DHT22;58101;48.658;2.328;2023-02-28T04:02:21;1.10;94.90
70550;DHT22;58101;48.658;2.328;2023-02-28T04:04:47;1.10;95.20
70550;DHT22;58101;48.658;2.328;2023-02-28T04:07:14;1.10;95.10
70550;DHT22;58101;48.658;2.328;2023-02-28T04:09:41;1.00;95.20
70550;DHT22;58101;48.658;2.328;2023-02-28T04:12:07;1.00;95.10
70550;DHT22;58101;48.658;2.328;2023-02-28T04:14:32;1.00;95.60
70550;DHT22;58101;48.658;2.328;2023-02-28T04:16:58;1.00;94.70
70550;DHT22;58101;48.658;2.328;2023-02-28T04:19:24;1.00;95.10
70550;DHT22;58101;48.658;2.328;2023-02-28T04:21:51;1.00;95.60
70550;DHT22;58101;48.658;2.328;2023-02-28T04:24:22;0.90;95.60
70550;DHT22;58101;48.658;2.328;2023-02-28T04:26:53;0.90;95.30
70550;DHT22;58101;48.658;2.328;2023-02-28T04:29:23;1.00;95.90
70550;DHT22;58101;48.658;2.328;2023-02-28T04:31:49;0.90;95.40
70550;DHT22;58101;48.658;2.328;2023-02-28T04:34:14;0.80;96.00
70550;DHT22;58101;48.658;2.328;2023-02-28T04:36:40;0.90;95.80
70550;DHT22;58101;48.658;2.328;2023-02-28T04:39:06;0.90;95.10
70550;DHT22;58101;48.658;2.328;2023-02-28T04:41:31;0.90;94.90
70550;DHT22;58101;48.658;2.328;2023-02-28T04:43:57;0.80;94.50
70550;DHT22;58101;48.658;2.328;2023-02-28T04:46:23;0.80;94.50
70550;DHT22;58101;48.658;2.328;2023-02-28T04:48:48;0.80;94.80
70550;DHT22;58101;48.658;2.328;2023-02-28T04:51:16;0.80;93.80
70550;DHT22;58101;48.658;2.328;2023-02-28T04:53:42;0.80;94.20
70550;DHT22;58101;48.658;2.328;2023-02-28T04:56:11;0.80;94.00
70550;DHT22;58101;48.658;2.328;2023-02-28T04:58:37;0.80;94.40
70550;DHT22;58101;48.658;2.328;2023-02-28T05:01:05;0.70;94.30
70550;DHT22;58101;48.658;2.328;2023-02-28T05:03:38;0.70;93.90
70550;DHT22;58101;48.658;2.328;2023-02-28T05:06:06;0.70;93.70
70550;DHT22;58101;48.658;2.328;2023-02-28T05:08:32;0.70;94.00
70550;DHT22;58101;48.658;2.328;2023-02-28T05:10:58;0.70;93.80
70550;DHT22;58101;48.658;2.328;2023-02-28T05:13:26;0.70;94.00
70550;DHT22;58101;48.658;2.328;2023-02-28T05:15:52;0.70;93.80
70550;DHT22;58101;48.658;2.328;2023-02-28T05:18:18;0.70;93.70
70550;DHT22;58101;48.658;2.328;2023-02-28T05:20:43;0.70;93.80
70550;DHT22;58101;48.658;2.328;2023-02-28T05:23:12;0.70;94.00
70550;DHT22;58101;48.658;2.328;2023-02-28T05:25:38;0.70;93.90
70550;DHT22;58101;48.658;2.328;2023-02-28T05:28:04;0.70;93.60
70550;DHT22;58101;48.658;2.328;2023-02-28T05:30:30;0.70;93.30
70550;DHT22;58101;48.658;2.328;2023-02-28T05:32:57;0.70;92.70
70550;DHT22;58101;48.658;2.328;2023-02-28T05:35:24;0.70;92.40
70550;DHT22;58101;48.658;2.328;2023-02-28T05:37:50;0.70;92.60
70550;DHT22;58101;48.658;2.328;2023-02-28T05:40:16;0.60;92.60
70550;DHT22;58101;48.658;2.328;2023-02-28T05:42:42;0.60;92.40
70550;DHT22;58101;48.658;2.328;2023-02-28T05:45:09;0.60;92.20
70550;DHT22;58101;48.658;2.328;2023-02-28T05:47:35;0.60;91.70
70550;DHT22;58101;48.658;2.328;2023-02-28T05:50:01;0.60;91.60
70550;DHT22;58101;48.658;2.328;2023-02-28T05:52:27;0.60;91.60
70550;DHT22;58101;48.658;2.328;2023-02-28T05:54:53;0.60;92.10
70550;DHT22;58101;48.658;2.328;2023-02-28T05:57:19;0.60;92.00
70550;DHT22;58101;48.658;2.328;2023-02-28T05:59:44;0.60;92.50
70550;DHT22;58101;48.658;2.328;2023-02-28T06:02:15;0.60;92.40
70550;DHT22;58101;48.658;2.328;2023-02-28T06:04:42;0.60;91.90
70550;DHT22;58101;48.658;2.328;2023-02-28T06:07:09;0.50;92.30
70550;DHT22;58101;48.658;2.328;2023-02-28T06:09:35;0.60;92.10
70550;DHT22;58101;48.658;2.328;2023-02-28T06:12:02;0.50;92.30
70550;DHT22;58101;48.658;2.328;2023-02-28T06:14:31;0.50;92.40
70550;DHT22;58101;48.658;2.328;2023-02-28T06:16:57;0.50;92.50
70550;DHT22;58101;48.658;2.328;2023-02-28T06:19:23;0.50;92.10
70550;DHT22;58101;48.658;2.328;2023-02-28T06:21:51;0.50;92.30
70550;DHT22;58101;48.658;2.328;2023-02-28T06:24:24;0.50;93.20
70550;DHT22;58101;48.658;2.328;2023-02-28T06:26:50;0.50;93.20
70550;DHT22;58101;48.658;2.328;2023-02-28T06:29:16;0.50;93.50
70550;DHT22;58101;48.658;2.328;2023-02-28T06:31:44;0.40;93.60
70550;DHT22;58101;48.658;2.328;2023-02-28T06:34:10;0.40;93.50
70550;DHT22;58101;48.658;2.328;2023-02-28T06:36:43;0.40;93.90
70550;DHT22;58101;48.658;2.328;2023-02-28T06:39:09;0.40;94.00
70550;DHT22;58101;48.658;2.328;2023-02-28T06:41:35;0.40;94.00
70550;DHT22;58101;48.658;2.328;2023-02-28T06:44:04;0.50;94.20
70550;DHT22;58101;48.658;2.328;2023-02-28T06:46:31;0.50;94.30
70550;DHT22;58101;48.658;2.328;2023-02-28T06:48:57;0.50;94.40
70550;DHT22;58101;48.658;2.328;2023-02-28T06:51:23;0.50;94.20
70550;DHT22;58101;48.658;2.328;2023-02-28T06:53:50;0.50;94.70
70550;DHT22;58101;48.658;2.328;2023-02-28T06:56:17;0.50;94.60
70550;DHT22;58101;48.658;2.328;2023-02-28T06:58:50;0.50;94.90
70550;DHT22;58101;48.658;2.328;2023-02-28T07:01:17;0.60;95.50
70550;DHT22;58101;48.658;2.328;2023-02-28T07:03:44;0.60;95.60
70550;DHT22;58101;48.658;2.328;2023-02-28T07:06:10;0.60;96.30
70550;DHT22;58101;48.658;2.328;2023-02-28T07:08:36;0.70;96.50
70550;DHT22;58101;48.658;2.328;2023-02-28T07:11:02;0.70;97.20
70550;DHT22;58101;48.658;2.328;2023-02-28T07:13:28;0.70;97.20
70550;DHT22;58101;48.658;2.328;2023-02-28T07:15:55;0.80;97.80
70550;DHT22;58101;48.658;2.328;2023-02-28T07:18:22;0.80;98.30
70550;DHT22;58101;48.658;2.328;2023-02-28T07:20:47;0.80;98.60
70550;DHT22;58101;48.658;2.328;2023-02-28T07:23:13;0.80;98.90
70550;DHT22;58101;48.658;2.328;2023-02-28T07:25:39;0.90;99.00
70550;DHT22;58101;48.658;2.328;2023-02-28T07:28:05;0.90;99.20
70550;DHT22;58101;48.658;2.328;2023-02-28T07:30:30;0.90;99.50
70550;DHT22;58101;48.658;2.328;2023-02-28T07:32:56;1.00;99.40
70550;DHT22;58101;48.658;2.328;2023-02-28T07:35:22;1.10;99.50
70550;DHT22;58101;48.658;2.328;2023-02-28T07:37:48;1.10;99.20
70550;DHT22;58101;48.658;2.328;2023-02-28T07:40:14;1.20;98.90
70550;DHT22;58101;48.658;2.328;2023-02-28T07:42:41;1.30;98.80
70550;DHT22;58101;48.658;2.328;2023-02-28T07:45:08;1.30;98.10
70550;DHT22;58101;48.658;2.328;2023-02-28T07:47:34;1.40;97.60
70550;DHT22;58101;48.658;2.328;2023-02-28T07:49:59;1.50;97.70
70550;DHT22;58101;48.658;2.328;2023-02-28T07:52:25;1.50;97.50
70550;DHT22;58101;48.658;2.328;2023-02-28T07:54:51;1.60;97.50
70550;DHT22;58101;48.658;2.328;2023-02-28T07:57:17;1.70;96.90
70550;DHT22;58101;48.658;2.328;2023-02-28T07:59:43;1.80;97.70
70550;DHT22;58101;48.658;2.328;2023-02-28T08:02:16;2.00;98.70
70550;DHT22;58101;48.658;2.328;2023-02-28T08:04:43;2.30;99.00
70550;DHT22;58101;48.658;2.328;2023-02-28T08:07:09;2.60;92.40
70550;DHT22;58101;48.658;2.328;2023-02-28T08:09:41;3.30;93.50
70550;DHT22;58101;48.658;2.328;2023-02-28T08:12:08;4.50;92.40
70550;DHT22;58101;48.658;2.328;2023-02-28T08:14:34;6.20;70.70
70550;DHT22;58101;48.658;2.328;2023-02-28T08:17:00;7.80;62.20
70550;DHT22;58101;48.658;2.328;2023-02-28T08:19:25;9.40;52.90
70550;DHT22;58101;48.658;2.328;2023-02-28T08:21:51;10.80;49.60
70550;DHT22;58101;48.658;2.328;2023-02-28T08:24:17;11.50;43.60
70550;DHT22;58101;48.658;2.328;2023-02-28T08:26:42;11.90;42.60
70550;DHT22;58101;48.658;2.328;2023-02-28T08:29:08;13.10;42.50
70550;DHT22;58101;48.658;2.328;2023-02-28T08:31:34;13.60;39.20
70550;DHT22;58101;48.658;2.328;2023-02-28T08:34:05;14.50;38.50
70550;DHT22;58101;48.658;2.328;2023-02-28T08:36:30;15.00;34.70
70550;DHT22;58101;48.658;2.328;2023-02-28T08:38:56;15.60;36.00
70550;DHT22;58101;48.658;2.328;2023-02-28T08:41:22;16.00;34.20
70550;DHT22;58101;48.658;2.328;2023-02-28T08:43:48;16.30;32.70
70550;DHT22;58101;48.658;2.328;2023-02-28T08:46:14;16.70;32.00
70550;DHT22;58101;48.658;2.328;2023-02-28T08:48:40;17.00;31.30
70550;DHT22;58101;48.658;2.328;2023-02-28T08:51:11;17.20;30.40
70550;DHT22;58101;48.658;2.328;2023-02-28T08:53:37;17.30;29.90
70550;DHT22;58101;48.658;2.328;2023-02-28T08:56:14;17.40;29.50
70550;DHT22;58101;48.658;2.328;2023-02-28T08:58:42;17.70;29.30
70550;DHT22;58101;48.658;2.328;2023-02-28T09:01:14;18.10;29.10
70550;DHT22;58101;48.658;2.328;2023-02-28T09:03:40;18.20;28.70
70550;DHT22;58101;48.658;2.328;2023-02-28T09:06:07;18.30;27.90
70550;DHT22;58101;48.658;2.328;2023-02-28T09:08:33;18.40;28.10
70550;DHT22;58101;48.658;2.328;2023-02-28T09:10:59;18.40;27.70
70550;DHT22;58101;48.658;2.328;2023-02-28T09:13:25;18.60;27.90
70550;DHT22;58101;48.658;2.328;2023-02-28T09:15:52;18.80;26.80
70550;DHT22;58101;48.658;2.328;2023-02-28T09:18:18;18.60;26.80
70550;DHT22;58101;48.658;2.328;2023-02-28T09:20:44;18.30;26.50
70550;DHT22;58101;48.658;2.328;2023-02-28T09:23:11;18.00;27.30
70550;DHT22;58101;48.658;2.328;2023-02-28T09:25:38;17.90;27.10
70550;DHT22;58101;48.658;2.328;2023-02-28T09:28:09;17.80;27.20
70550;DHT22;58101;48.658;2.328;2023-02-28T09:30:36;17.70;27.50
70550;DHT22;58101;48.658;2.328;2023-02-28T09:33:02;18.00;28.10
70550;DHT22;58101;48.658;2.328;2023-02-28T09:35:28;18.20;27.30
70550;DHT22;58101;48.658;2.328;2023-02-28T09:37:56;18.20;26.70
70550;DHT22;58101;48.658;2.328;2023-02-28T09:40:24;18.70;27.00
70550;DHT22;58101;48.658;2.328;2023-02-28T09:42:53;18.90;26.10
70550;DHT22;58101;48.658;2.328;2023-02-28T09:45:30;19.20;25.70
70550;DHT22;58101;48.658;2.328;2023-02-28T09:48:12;19.50;25.60
70550;DHT22;58101;48.658;2.328;2023-02-28T09:50:46;19.90;25.70
70550;DHT22;58101;48.658;2.328;2023-02-28T09:53:28;20.10;25.00
70550;DHT22;58101;48.658;2.328;2023-02-28T09:56:04;20.30;24.80
70550;DHT22;58101;48.658;2.328;2023-02-28T09:58:54;20.50;25.40
70550;DHT22;58101;48.658;2.328;2023-02-28T10:04:33;21.10;23.70
70550;DHT22;58101;48.658;2.328;2023-02-28T10:07:04;21.20;23.80
70550;DHT22;58101;48.658;2.328;2023-02-28T10:09:32;21.10;23.00
70550;DHT22;58101;48.658;2.328;2023-02-28T10:12:05;20.70;22.80
70550;DHT22;58101;48.658;2.328;2023-02-28T10:14:33;20.60;23.50
70550;DHT22;58101;48.658;2.328;2023-02-28T10:17:13;20.80;23.30
70550;DHT22;58101;48.658;2.328;2023-02-28T10:22:22;21.00;22.50
70550;DHT22;58101;48.658;2.328;2023-02-28T10:24:51;21.20;22.20
70550;DHT22;58101;48.658;2.328;2023-02-28T10:27:18;21.10;21.30
70550;DHT22;58101;48.658;2.328;2023-02-28T10:29:54;20.90;21.90
70550;DHT22;58101;48.658;2.328;2023-02-28T10:32:27;20.70;22.20
70550;DHT22;58101;48.658;2.328;2023-02-28T10:37:26;21.50;22.20
70550;DHT22;58101;48.658;2.328;2023-02-28T10:39:52;21.40;21.40
70550;DHT22;58101;48.658;2.328;2023-02-28T10:42:18;21.40;20.40
70550;DHT22;58101;48.658;2.328;2023-02-28T10:44:44;21.90;21.60
70550;DHT22;58101;48.658;2.328;2023-02-28T10:47:19;22.40;21.80
70550;DHT22;58101;48.658;2.328;2023-02-28T10:49:49;22.60;20.40
70550;DHT22;58101;48.658;2.328;2023-02-28T10:52:34;22.00;20.30
70550;DHT22;58101;48.658;2.328;2023-02-28T10:55:21;20.50;20.80
70550;DHT22;58101;48.658;2.328;2023-02-28T10:57:48;19.10;22.50
70550;DHT22;58101;48.658;2.328;2023-02-28T11:00:21;17.40;23.30
70550;DHT22;58101;48.658;2.328;2023-02-28T11:02:47;16.10;25.30
70550;DHT22;58101;48.658;2.328;2023-02-28T11:05:31;14.50;27.10
70550;DHT22;58101;48.658;2.328;2023-02-28T11:08:05;14.20;27.90
70550;DHT22;58101;48.658;2.328;2023-02-28T11:10:32;15.00;27.20
70550;DHT22;58101;48.658;2.328;2023-02-28T11:13:00;16.70;26.50
70550;DHT22;58101;48.658;2.328;2023-02-28T11:15:34;18.20;24.50
70550;DHT22;58101;48.658;2.328;2023-02-28T11:21:03;18.80;23.60
70550;DHT22;58101;48.658;2.328;2023-02-28T11:23:30;18.20;23.90
70550;DHT22;58101;48.658;2.328;2023-02-28T11:26:00;17.80;24.70
70550;DHT22;58101;48.658;2.328;2023-02-28T11:28:34;17.00;24.50
70550;DHT22;58101;48.658;2.328;2023-02-28T11:31:04;16.20;26.10
70550;DHT22;58101;48.658;2.328;2023-02-28T11:33:32;15.50;26.60
70550;DHT22;58101;48.658;2.328;2023-02-28T11:36:03;14.70;27.40
70550;DHT22;58101;48.658;2.328;2023-02-28T11:38:29;14.90;27.70
70550;DHT22;58101;48.658;2.328;2023-02-28T11:54:32;19.50;23.30
70550;DHT22;58101;48.658;2.328;2023-02-28T12:02:32;16.20;24.90
70550;DHT22;58101;48.658;2.328;2023-02-28T12:10:29;17.50;25.30
70550;DHT22;58101;48.658;2.328;2023-02-28T12:13:26;18.30;24.10
70550;DHT22;58101;48.658;2.328;2023-02-28T12:19:12;18.40;23.00
70550;DHT22;58101;48.658;2.328;2023-02-28T12:21:53;18.20;24.30
70550;DHT22;58101;48.658;2.328;2023-02-28T12:25:16;18.70;23.60
70550;DHT22;58101;48.658;2.328;2023-02-28T12:27:17;19.00;23.60
70550;DHT22;58101;48.658;2.328;2023-02-28T12:29:55;19.80;22.90
70550;DHT22;58101;48.658;2.328;2023-02-28T12:32:27;20.10;22.00
70550;DHT22;58101;48.658;2.328;2023-02-28T12:34:56;20.10;22.40
70550;DHT22;58101;48.658;2.328;2023-02-28T12:37:44;19.90;23.30
70550;DHT22;58101;48.658;2.328;2023-02-28T12:40:12;18.90;22.80
70550;DHT22;58101;48.658;2.328;2023-02-28T12:43:01;18.40;23.90
70550;DHT22;58101;48.658;2.328;2023-02-28T12:45:53;17.10;24.40
70550;DHT22;58101;48.658;2.328;2023-02-28T12:48:48;15.40;26.30
70550;DHT22;58101;48.658;2.328;2023-02-28T12:51:16;14.40;28.20
70550;DHT22;58101;48.658;2.328;2023-02-28T12:59:11;14.80;27.90
70550;DHT22;58101;48.658;2.328;2023-02-28T13:09:59;14.70;27.50
70550;DHT22;58101;48.658;2.328;2023-02-28T13:12:26;14.50;27.90
70550;DHT22;58101;48.658;2.328;2023-02-28T13:15:08;14.40;28.40
70550;DHT22;58101;48.658;2.328;2023-02-28T13:17:39;14.30;28.40
70550;DHT22;58101;48.658;2.328;2023-02-28T13:20:17;14.40;29.00
70550;DHT22;58101;48.658;2.328;2023-02-28T13:22:46;14.10;27.90
70550;DHT22;58101;48.658;2.328;2023-02-28T13:28:00;12.90;28.70
70550;DHT22;58101;48.658;2.328;2023-02-28T13:33:35;11.90;30.90
70550;DHT22;58101;48.658;2.328;2023-02-28T13:38:39;11.90;30.50
70550;DHT22;58101;48.658;2.328;2023-02-28T13:44:08;11.80;30.00
70550;DHT22;58101;48.658;2.328;2023-02-28T13:49:28;11.70;31.20
70550;DHT22;58101;48.658;2.328;2023-02-28T13:51:55;11.70;31.80
70550;DHT22;58101;48.658;2.328;2023-02-28T14:06:25;10.90;31.50
70550;DHT22;58101;48.658;2.328;2023-02-28T14:09:06;10.70;32.80
70550;DHT22;58101;48.658;2.328;2023-02-28T14:11:40;10.40;33.20
70550;DHT22;58101;48.658;2.328;2023-02-28T14:14:08;10.40;33.50
70550;DHT22;58101;48.658;2.328;2023-02-28T14:16:47;10.40;34.00
70550;DHT22;58101;48.658;2.328;2023-02-28T14:19:27;10.10;33.10
70550;DHT22;58101;48.658;2.328;2023-02-28T14:27:39;9.40;32.50
70550;DHT22;58101;48.658;2.328;2023-02-28T14:38:33;9.20;34.30
70550;DHT22;58101;48.658;2.328;2023-02-28T14:41:05;9.20;33.90
70550;DHT22;58101;48.658;2.328;2023-02-28T14:43:32;9.10;33.30
70550;DHT22;58101;48.658;2.328;2023-02-28T14:46:02;9.00;34.30
70550;DHT22;58101;48.658;2.328;2023-02-28T14:48:28;8.90;34.40
70550;DHT22;58101;48.658;2.328;2023-02-28T14:50:57;8.80;34.40
70550;DHT22;58101;48.658;2.328;2023-02-28T14:53:26;8.60;34.40
70550;DHT22;58101;48.658;2.328;2023-02-28T14:55:52;8.40;34.70
70550;DHT22;58101;48.658;2.328;2023-02-28T14:58:26;8.40;35.20
70550;DHT22;58101;48.658;2.328;2023-02-28T15:01:00;8.40;35.00
70550;DHT22;58101;48.658;2.328;2023-02-28T15:03:33;8.50;35.30
70550;DHT22;58101;48.658;2.328;2023-02-28T15:06:03;8.40;35.20
70550;DHT22;58101;48.658;2.328;2023-02-28T15:08:31;8.50;35.90
70550;DHT22;58101;48.658;2.328;2023-02-28T15:13:38;8.40;35.80
70550;DHT22;58101;48.658;2.328;2023-02-28T15:16:08;8.40;36.90
70550;DHT22;58101;48.658;2.328;2023-02-28T15:18:48;8.50;36.30
70550;DHT22;58101;48.658;2.328;2023-02-28T15:21:20;8.40;35.90
70550;DHT22;58101;48.658;2.328;2023-02-28T15:23:50;8.30;36.00
70550;DHT22;58101;48.658;2.328;2023-02-28T15:26:20;8.00;35.90
70550;DHT22;58101;48.658;2.328;2023-02-28T15:29:03;7.90;36.80
70550;DHT22;58101;48.658;2.328;2023-02-28T15:31:33;7.80;37.50
70550;DHT22;58101;48.658;2.328;2023-02-28T15:34:05;7.70;37.10
70550;DHT22;58101;48.658;2.328;2023-02-28T15:36:32;7.60;37.80
70550;DHT22;58101;48.658;2.328;2023-02-28T15:38:59;7.60;38.10
70550;DHT22;58101;48.658;2.328;2023-02-28T15:41:36;7.60;38.10
70550;DHT22;58101;48.658;2.328;2023-02-28T15:44:25;7.50;37.60
70550;DHT22;58101;48.658;2.328;2023-02-28T15:47:03;7.50;37.60
70550;DHT22;58101;48.658;2.328;2023-02-28T15:49:39;7.50;37.60
70550;DHT22;58101;48.658;2.328;2023-02-28T15:52:05;7.40;37.10
70550;DHT22;58101;48.658;2.328;2023-02-28T15:54:35;7.40;37.50
70550;DHT22;58101;48.658;2.328;2023-02-28T15:57:07;7.30;38.20
70550;DHT22;58101;48.658;2.328;2023-02-28T15:59:37;7.30;38.30
70550;DHT22;58101;48.658;2.328;2023-02-28T16:07:39;7.40;38.90
70550;DHT22;58101;48.658;2.328;2023-02-28T16:10:07;7.30;38.40
70550;DHT22;58101;48.658;2.328;2023-02-28T16:12:37;7.30;39.00
70550;DHT22;58101;48.658;2.328;2023-02-28T16:17:52;7.30;38.80
70550;DHT22;58101;48.658;2.328;2023-02-28T16:20:23;7.30;37.90
70550;DHT22;58101;48.658;2.328;2023-02-28T16:22:49;7.30;38.30
70550;DHT22;58101;48.658;2.328;2023-02-28T16:25:17;7.20;38.20
70550;DHT22;58101;48.658;2.328;2023-02-28T16:27:46;7.20;38.00
70550;DHT22;58101;48.658;2.328;2023-02-28T16:30:19;7.10;37.60
70550;DHT22;58101;48.658;2.328;2023-02-28T16:32:45;7.00;36.30
70550;DHT22;58101;48.658;2.328;2023-02-28T16:35:11;7.00;37.50
70550;DHT22;58101;48.658;2.328;2023-02-28T16:37:39;6.90;38.70
70550;DHT22;58101;48.658;2.328;2023-02-28T16:40:05;6.80;37.80
70550;DHT22;58101;48.658;2.328;2023-02-28T16:42:31;6.70;38.00
70550;DHT22;58101;48.658;2.328;2023-02-28T16:44:57;6.60;38.70
70550;DHT22;58101;48.658;2.328;2023-02-28T16:47:23;6.50;38.70
70550;DHT22;58101;48.658;2.328;2023-02-28T16:49:49;6.50;38.90
70550;DHT22;58101;48.658;2.328;2023-02-28T16:52:15;6.50;38.90
70550;DHT22;58101;48.658;2.328;2023-02-28T16:54:41;6.50;38.40
70550;DHT22;58101;48.658;2.328;2023-02-28T16:57:30;6.40;38.40
70550;DHT22;58101;48.658;2.328;2023-02-28T16:59:55;6.50;38.50
70550;DHT22;58101;48.658;2.328;2023-02-28T17:02:21;6.40;38.60
70550;DHT22;58101;48.658;2.328;2023-02-28T17:04:47;6.40;38.70
70550;DHT22;58101;48.658;2.328;2023-02-28T17:07:15;6.30;38.80
70550;DHT22;58101;48.658;2.328;2023-02-28T17:09:42;6.40;39.30
70550;DHT22;58101;48.658;2.328;2023-02-28T17:12:08;6.20;39.70
70550;DHT22;58101;48.658;2.328;2023-02-28T17:14:34;6.30;40.60
70550;DHT22;58101;48.658;2.328;2023-02-28T17:17:00;6.20;39.50
70550;DHT22;58101;48.658;2.328;2023-02-28T17:19:26;6.20;39.90
70550;DHT22;58101;48.658;2.328;2023-02-28T17:21:53;6.10;39.90
70550;DHT22;58101;48.658;2.328;2023-02-28T17:24:19;6.10;40.00
70550;DHT22;58101;48.658;2.328;2023-02-28T17:26:45;6.10;39.90
70550;DHT22;58101;48.658;2.328;2023-02-28T17:29:16;6.20;39.90
70550;DHT22;58101;48.658;2.328;2023-02-28T17:31:42;6.10;40.00
70550;DHT22;58101;48.658;2.328;2023-02-28T17:34:08;6.00;41.10
70550;DHT22;58101;48.658;2.328;2023-02-28T17:36:34;6.00;40.40
70550;DHT22;58101;48.658;2.328;2023-02-28T17:39:01;6.00;40.30
70550;DHT22;58101;48.658;2.328;2023-02-28T17:41:27;6.00;40.30
70550;DHT22;58101;48.658;2.328;2023-02-28T17:43:55;6.00;40.90
70550;DHT22;58101;48.658;2.328;2023-02-28T17:46:23;6.00;40.60
70550;DHT22;58101;48.658;2.328;2023-02-28T17:48:51;5.90;40.40
70550;DHT22;58101;48.658;2.328;2023-02-28T17:51:20;5.90;40.90
70550;DHT22;58101;48.658;2.328;2023-02-28T17:53:46;6.00;41.10
70550;DHT22;58101;48.658;2.328;2023-02-28T17:56:20;5.90;41.30
70550;DHT22;58101;48.658;2.328;2023-02-28T17:58:47;5.90;41.60
70550;DHT22;58101;48.658;2.328;2023-02-28T18:01:12;5.90;42.00
70550;DHT22;58101;48.658;2.328;2023-02-28T18:03:38;5.80;41.90
70550;DHT22;58101;48.658;2.328;2023-02-28T18:06:04;5.80;42.50
70550;DHT22;58101;48.658;2.328;2023-02-28T18:08:32;5.70;42.60
70550;DHT22;58101;48.658;2.328;2023-02-28T18:11:00;5.70;43.20
70550;DHT22;58101;48.658;2.328;2023-02-28T18:13:25;5.70;43.00
70550;DHT22;58101;48.658;2.328;2023-02-28T18:15:53;5.70;44.20
70550;DHT22;58101;48.658;2.328;2023-02-28T18:18:19;5.70;43.30
70550;DHT22;58101;48.658;2.328;2023-02-28T18:20:45;5.70;43.60
70550;DHT22;58101;48.658;2.328;2023-02-28T18:23:10;5.70;43.60